Terminal Aerodrome Forecast
Issued by NWS

Home | Current Version | Previous Version | Text Only | Print | Product List | Glossary On
Versions: 1 2 3 4 5 6 7 8 9 10 11 12 13 14 15 16 17 18 19 20
000
FTUS46 KSEW 201221 AAB
TAFHQM
TAF AMD
KHQM 201221Z 2012/2112 VRB03KT 4SM -RA BR FEW005 BKN028 OVC050
      TEMPO 2012/2016 2SM RA BR BKN005 BKN015 OVC030
     FM201800 29006KT P6SM VCSH SCT008 BKN015 OVC030
     FM202000 29006KT P6SM VCSH BKN025 BKN040
     FM210000 29006KT P6SM SCT030 BKN050
     FM210400 23006KT P6SM BKN050
     FM210900 23006KT P6SM BKN012 OVC020=

USA.gov is the U.S. government's official web portal to all federal, state and local government web resources and services.